Time;durP1;ratioP1;P1;durP2;ratioP2;P2;SDS_P1;SDS_P2;PMS_P1;PMS_P2;Temp;Humidity;BMP_temperature;BMP_pressure;BME280_temperature;BME280_humidity;BME280_pressure;Samples;Min_cycle;Max_cycle;Signal;HPM_P1;HPM_P2
2022/12/22 03:26:41;;;;;;;11.20;10.40;;;;;;;8.25;100.00;100195.22;5121873;29;20055;-81
2022/12/22 03:29:12;;;;;;;25.80;10.90;;;;;;;8.42;100.00;100220.13;5126794;29;20035;-82
2022/12/22 03:31:42;;;;;;;180.85;30.27;;;;;;;7.77;100.00;100116.31;5121761;29;20033;-83
2022/12/22 03:34:13;;;;;;;20.80;12.48;;;;;;;8.28;100.00;100192.81;5117768;29;20042;-82
2022/12/22 03:36:43;;;;;;;12.52;11.45;;;;;;;8.42;100.00;100214.75;5118241;29;20031;-82
2022/12/22 03:39:13;;;;;;;13.48;12.48;;;;;;;8.40;100.00;100203.41;5118083;29;20032;-83
2022/12/22 03:47:22;;;;;;;40.60;15.88;;;;;;;8.36;100.00;100207.72;5118693;29;20182;-82
2022/12/22 03:49:52;;;;;;;137.48;27.65;;;;;;;8.38;100.00;100203.69;5118374;29;20051;-81
2022/12/22 03:52:23;;;;;;;81.00;18.85;;;;;;;8.41;100.00;100216.63;5118265;29;20042;-83
2022/12/22 03:54:53;;;;;;;15.80;14.55;;;;;;;8.29;100.00;100188.25;5100591;29;20091;-82
2022/12/22 03:57:23;;;;;;;17.50;15.95;;;;;;;8.50;100.00;100211.59;5117571;29;20119;-82
2022/12/22 03:59:54;;;;;;;15.25;14.00;;;;;;;8.43;100.00;100202.91;5118515;29;20066;-81
2022/12/22 04:02:24;;;;;;;21.08;19.30;;;;;;;8.52;100.00;100209.44;5119152;29;20027;-82
2022/12/22 04:04:55;;;;;;;20.80;19.02;;;;;;;8.52;100.00;100204.06;5118551;29;20026;-83
2022/12/22 04:07:25;;;;;;;17.35;16.15;;;;;;;8.61;100.00;100212.47;5115982;29;20449;-83
2022/12/22 04:12:54;;;;;;;19.75;18.35;;;;;;;8.64;100.00;100206.59;5116303;29;20043;-82
2022/12/22 04:15:27;;;;;;;18.42;16.90;;;;;;;8.55;100.00;100198.16;5114799;29;20031;-82
2022/12/22 04:17:58;;;;;;;16.70;14.80;;;;;;;8.44;100.00;100191.09;5099790;29;20059;-81
2022/12/22 04:20:29;;;;;;;34.63;16.70;;;;;;;8.31;100.00;100184.25;5116542;29;20032;-82
2022/12/22 04:22:59;;;;;;;18.92;17.27;;;;;;;8.28;100.00;100192.81;5099386;29;20023;-81
2022/12/22 04:25:30;;;;;;;14.20;13.05;;;;;;;8.45;100.00;100215.03;5100133;29;20031;-82
2022/12/22 04:28:00;;;;;;;15.82;14.63;;;;;;;8.50;100.00;100216.16;5116831;29;20397;-81
2022/12/22 04:30:30;;;;;;;19.13;15.88;;;;;;;8.40;100.00;100206.13;5116977;29;20101;-82
2022/12/22 04:33:01;;;;;;;18.75;17.00;;;;;;;8.42;100.00;100214.75;5099627;29;20028;-82
2022/12/22 04:35:31;;;;;;;63.15;22.30;;;;;;;8.37;100.00;100215.50;5116926;29;20027;-82
2022/12/22 04:38:02;;;;;;;30.55;17.13;;;;;;;8.40;100.00;100228.44;5117235;29;20031;-83
2022/12/22 04:40:32;;;;;;;28.65;15.63;;;;;;;8.30;100.00;100206.84;5117760;29;20062;-82
2022/12/22 04:43:03;;;;;;;43.97;14.07;;;;;;;8.28;100.00;100225.09;5100388;29;20040;-83
2022/12/22 04:45:33;;;;;;;15.20;13.35;;;;;;;8.22;100.00;100211.88;5100131;29;20481;-83
2022/12/22 04:48:04;;;;;;;14.10;11.65;;;;;;;8.24;100.00;100221.31;5117507;29;20074;-82
2022/12/22 04:50:34;;;;;;;33.35;17.42;;;;;;;8.33;100.00;100243.22;5117577;29;20042;-82
2022/12/22 04:53:05;;;;;;;18.27;16.63;;;;;;;8.32;100.00;100246.94;5117586;29;20067;-81
2022/12/22 04:55:35;;;;;;;18.13;16.50;;;;;;;8.07;100.00;100204.50;5117018;29;20112;-81
2022/12/22 04:58:05;;;;;;;19.48;17.65;;;;;;;8.22;100.00;100230.69;5099689;29;20128;-82
2022/12/22 05:00:36;;;;;;;18.23;16.70;;;;;;;8.22;100.00;100230.69;5113055;29;20469;-83
2022/12/22 05:03:07;;;;;;;19.55;17.90;;;;;;;8.28;100.00;100241.25;5115437;29;20034;-83
2022/12/22 05:05:38;;;;;;;17.95;16.20;;;;;;;8.16;100.00;100232.53;5116092;29;20028;-83
2022/12/22 05:08:08;;;;;;;16.92;15.23;;;;;;;8.21;100.00;100245.22;5116584;29;20091;-82
2022/12/22 05:10:39;;;;;;;20.60;18.65;;;;;;;8.03;100.00;100212.25;5116201;29;20462;-83
2022/12/22 05:13:10;;;;;;;17.50;15.90;;;;;;;7.99;100.00;100199.56;5116258;29;20019;-83
2022/12/22 05:15:40;;;;;;;18.13;16.52;;;;;;;8.26;100.00;100234.50;5116266;29;20024;-83
2022/12/22 05:18:12;;;;;;;53.42;19.38;;;;;;;8.03;100.00;100211.44;5116103;29;20027;-83
2022/12/22 05:20:42;;;;;;;17.00;15.48;;;;;;;8.11;100.00;100232.47;5116325;29;20028;-83
2022/12/22 05:23:12;;;;;;;39.55;17.15;;;;;;;8.11;100.00;100225.22;5115938;29;20024;-83
2022/12/22 05:25:43;;;;;;;66.65;16.73;;;;;;;8.02;100.00;100236.69;5116524;29;20477;-83
2022/12/22 05:28:13;;;;;;;20.48;15.45;;;;;;;8.09;100.00;100251.53;5115904;29;20027;-84
2022/12/22 05:30:44;;;;;;;17.20;15.30;;;;;;;8.15;100.00;100247.03;5115930;29;20031;-83
2022/12/22 05:33:14;;;;;;;15.30;13.93;;;;;;;8.12;100.00;100248.34;5115818;29;20423;-82
2022/12/22 05:35:44;;;;;;;17.05;15.50;;;;;;;8.00;100.00;100238.84;5100339;29;20071;-83
2022/12/22 05:38:15;;;;;;;15.77;14.45;;;;;;;8.05;100.00;100246.97;5116161;29;20023;-83
2022/12/22 05:40:45;;;;;;;16.70;15.30;;;;;;;8.08;100.00;100246.44;5115904;29;20032;-83
2022/12/22 05:43:15;;;;;;;14.25;12.98;;;;;;;8.19;100.00;100252.72;5116225;29;20047;-83
2022/12/22 05:45:46;;;;;;;14.88;13.68;;;;;;;8.39;100.00;100283.31;5098941;29;20032;-82
2022/12/22 05:48:16;;;;;;;17.67;16.10;;;;;;;8.48;100.00;100294.44;5116314;29;20063;-83
2022/12/22 05:50:47;;;;;;;17.35;15.95;;;;;;;8.29;100.00;100252.81;5116489;29;20028;-82
2022/12/22 05:53:17;;;;;;;16.42;14.93;;;;;;;8.36;100.00;100280.38;5117610;29;20123;-81
2022/12/22 05:55:48;;;;;;;18.40;15.07;;;;;;;8.20;100.00;100249.78;5122743;29;20035;-82
2022/12/22 05:58:18;;;;;;;16.52;14.93;;;;;;;8.61;100.00;100312.88;5125351;29;20031;-82
2022/12/22 06:00:49;;;;;;;15.27;14.07;;;;;;;8.40;100.00;100292.22;5120181;29;20039;-82
2022/12/22 06:03:19;;;;;;;21.40;18.40;;;;;;;8.65;100.00;100332.00;5116253;29;20039;-81
2022/12/22 06:05:49;;;;;;;19.70;17.52;;;;;;;8.63;100.00;100334.97;5116399;29;20486;-82
2022/12/22 06:08:21;;;;;;;19.23;17.52;;;;;;;8.69;100.00;100343.88;5099897;29;20032;-83
2022/12/22 06:10:56;;;;;;;20.92;18.30;;;;;;;8.67;100.00;100354.06;5122303;29;20422;-80
2022/12/22 06:13:26;;;;;;;23.35;21.05;;;;;;;8.67;100.00;100351.38;5130202;29;20034;-82
2022/12/22 06:15:57;;;;;;;26.08;22.38;;;;;;;8.69;100.00;100366.22;5130644;29;20031;-84
2022/12/22 06:18:27;;;;;;;27.35;24.42;;;;;;;8.59;100.00;100352.69;5123891;29;20031;-84
2022/12/22 06:20:58;;;;;;;26.42;23.98;;;;;;;8.67;100.00;100372.91;5137968;29;20609;-83
2022/12/22 06:23:28;;;;;;;29.52;25.92;;;;;;;8.67;100.00;100373.72;5120671;29;20027;-81
2022/12/22 06:26:00;;;;;;;32.13;27.60;;;;;;;8.66;100.00;100376.72;5138316;29;20026;-84
2022/12/22 06:28:31;;;;;;;29.83;24.20;;;;;;;8.61;100.00;100387.41;5137867;29;20532;-84
2022/12/22 06:31:01;;;;;;;31.63;25.95;;;;;;;8.56;100.00;100393.56;5120889;29;20031;-84
2022/12/22 06:33:33;;;;;;;26.48;24.10;;;;;;;8.37;100.00;100389.59;5120334;29;20468;-84
2022/12/22 06:36:05;;;;;;;35.30;27.42;;;;;;;8.28;100.00;100361.47;5120832;29;20027;-84
2022/12/22 06:38:36;;;;;;;30.08;26.80;;;;;;;8.30;100.00;100387.06;5135923;28;20075;-83
2022/12/22 06:41:06;;;;;;;29.52;26.45;;;;;;;8.40;100.00;100403.34;5128872;29;20035;-85
2022/12/22 06:43:36;;;;;;;36.13;28.45;;;;;;;8.38;100.00;100410.84;5101534;29;20026;-84
2022/12/22 06:46:07;;;;;;;32.03;28.48;;;;;;;8.41;100.00;100428.38;5116753;29;20034;-85
2022/12/22 06:48:37;;;;;;;39.90;29.35;;;;;;;8.19;100.00;100397.94;5097550;29;20027;-85
2022/12/22 06:51:07;;;;;;;34.55;27.42;;;;;;;8.33;100.00;100426.94;5097987;29;20087;-85
2022/12/22 06:53:38;;;;;;;32.97;29.42;;;;;;;8.20;100.00;100413.84;5101056;29;20490;-84
2022/12/22 06:56:08;;;;;;;34.30;29.73;;;;;;;8.08;100.00;100405.09;5116346;29;20448;-85
2022/12/22 06:58:39;;;;;;;34.53;31.08;;;;;;;8.17;100.00;100430.47;5117323;29;20034;-85
2022/12/22 07:01:09;;;;;;;39.25;31.52;;;;;;;7.86;100.00;100398.88;5118543;29;20560;-85
2022/12/22 07:03:39;;;;;;;35.95;32.13;;;;;;;8.10;100.00;100432.53;5119163;29;20024;-85
2022/12/22 07:06:10;;;;;;;36.55;32.70;;;;;;;7.76;100.00;100399.59;5118461;29;20038;-86
2022/12/22 07:08:41;;;;;;;38.47;33.05;;;;;;;7.78;100.00;100392.91;5118788;29;20038;-85
2022/12/22 07:11:12;;;;;;;38.35;34.33;;;;;;;7.84;100.00;100415.25;5117015;29;20039;-85
2022/12/22 07:13:42;;;;;;;37.97;33.13;;;;;;;7.65;100.00;100385.19;5098489;29;20028;-85
2022/12/22 07:16:13;;;;;;;39.95;33.92;;;;;;;7.90;100.00;100425.03;5098755;29;20051;-85
2022/12/22 07:18:43;;;;;;;38.70;34.08;;;;;;;7.77;100.00;100441.53;5115982;29;20091;-86
2022/12/22 07:21:14;;;;;;;42.92;36.40;;;;;;;7.84;100.00;100458.28;5114002;29;20028;-86
2022/12/22 07:23:44;;;;;;;36.17;32.25;;;;;;;8.02;100.00;100486.78;5135026;28;20019;-86
2022/12/22 07:26:14;;;;;;;40.90;34.22;;;;;;;8.10;100.00;100492.50;5139453;28;20019;-86
2022/12/22 07:28:45;;;;;;;35.15;27.05;;;;;;;8.09;100.00;100515.09;5131432;28;20090;-85
2022/12/22 07:31:18;;;;;;;33.10;29.50;;;;;;;8.02;100.00;100484.09;5124556;29;20027;-86
2022/12/22 07:33:48;;;;;;;35.33;29.90;;;;;;;7.91;100.00;100482.31;5136273;29;20389;-85
2022/12/22 07:36:19;;;;;;;35.67;30.02;;;;;;;7.80;100.00;100471.41;5121590;29;20110;-85
2022/12/22 07:38:50;;;;;;;40.67;32.67;;;;;;;7.43;100.00;100428.16;5138880;29;20055;-87
2022/12/22 07:44:10;;;;;;;36.58;30.33;;;;;;;7.60;100.00;100506.03;5137106;29;20134;-86
2022/12/22 07:46:41;;;;;;;39.58;34.17;;;;;;;7.29;100.00;100493.16;5136445;29;20024;-87
2022/12/22 07:52:00;;;;;;;36.10;32.35;;;;;;;6.54;100.00;100432.53;5136127;29;20493;-87
2022/12/22 07:54:33;;;;;;;35.38;31.75;;;;;;;7.24;100.00;100542.22;5136096;29;20031;-86
2022/12/22 07:57:03;;;;;;;34.05;28.33;;;;;;;7.14;100.00;100568.09;5137013;29;20039;-87
2022/12/22 07:59:34;;;;;;;38.17;34.03;;;;;;;7.03;100.00;100543.75;5119789;29;20386;-86
2022/12/22 08:02:04;;;;;;;46.20;34.55;;;;;;;6.76;100.00;100524.72;5136180;29;20493;-87
2022/12/22 08:04:35;;;;;;;40.78;29.38;;;;;;;6.62;100.00;100488.50;5134521;29;20019;-88
2022/12/22 08:07:05;;;;;;;40.00;32.50;;;;;;;7.08;100.00;100565.31;5118814;29;20022;-86
2022/12/22 08:09:36;;;;;;;33.72;30.15;;;;;;;6.53;100.00;100487.25;5113481;29;20090;-87
2022/12/22 08:12:06;;;;;;;32.95;29.15;;;;;;;6.54;100.00;100507.66;5113123;29;20034;-87
2022/12/22 08:14:36;;;;;;;32.10;27.20;;;;;;;6.17;100.00;100460.75;5112626;29;20023;-87
2022/12/22 08:17:07;;;;;;;37.13;28.60;;;;;;;6.43;100.00;100519.22;5112562;29;20467;-87
2022/12/22 08:19:37;;;;;;;31.90;28.05;;;;;;;7.03;100.00;100628.84;5113684;29;20115;-87
2022/12/22 08:22:07;;;;;;;29.20;25.77;;;;;;;6.41;100.00;100529.34;5130815;29;20023;-88
2022/12/22 08:24:38;;;;;;;33.72;29.63;;;;;;;6.38;100.00;100537.88;5130690;29;20034;-87
2022/12/22 08:27:13;;;;;;;33.28;29.42;;;;;;;6.49;100.00;100569.22;5133391;29;20042;-87
2022/12/22 08:29:48;;;;;;;29.95;26.95;;;;;;;6.65;100.00;100614.09;5141991;29;20031;-86
2022/12/22 08:32:18;;;;;;;39.78;31.80;;;;;;;6.83;100.00;100647.22;5112957;29;20031;-87
2022/12/22 08:34:50;;;;;;;31.42;26.85;;;;;;;6.47;100.00;100597.34;5128588;28;20386;-87
2022/12/22 08:37:23;;;;;;;38.22;31.00;;;;;;;6.97;100.00;100675.41;5110663;29;20034;-85
2022/12/22 08:40:00;;;;;;;38.15;26.35;;;;;;;6.12;100.00;100570.53;5112850;29;20066;-85
2022/12/22 08:42:32;;;;;;;35.10;28.23;;;;;;;6.79;100.00;100671.03;5112106;29;20019;-85
2022/12/22 08:45:04;;;;;;;37.97;32.03;;;;;;;6.41;100.00;100629.41;5129250;29;20397;-88
2022/12/22 08:47:34;;;;;;;36.45;30.35;;;;;;;6.32;100.00;100584.44;5131021;29;20027;-86
2022/12/22 08:50:05;;;;;;;38.22;31.88;;;;;;;6.42;100.00;100571.22;5112993;29;20059;-86
2022/12/22 08:52:37;;;;;;;38.75;33.47;;;;;;;6.92;100.00;100638.56;5112270;29;20031;-86
2022/12/22 08:55:07;;;;;;;42.10;32.45;;;;;;;6.76;100.00;100591.81;5111105;28;20242;-86
2022/12/22 08:57:38;;;;;;;54.78;36.85;;;;;;;7.03;100.00;100632.34;5127031;29;20102;-87
2022/12/22 09:00:11;;;;;;;52.90;35.80;;;;;;;7.64;100.00;100692.63;5109977;29;20023;-86
2022/12/22 09:02:42;;;;;;;42.47;34.67;;;;;;;7.53;100.00;100658.53;5128812;23;20408;-82
2022/12/22 09:05:12;;;;;;;41.58;32.20;;;;;;;7.53;100.00;100660.41;5110300;29;20111;-82
2022/12/22 09:07:42;;;;;;;58.80;37.53;;;;;;;7.76;100.00;100690.69;5110254;29;20035;-82
2022/12/22 09:10:13;;;;;;;47.55;36.08;;;;;;;7.40;100.00;100640.03;5110633;29;20051;-82
2022/12/22 09:12:46;;;;;;;43.85;36.88;;;;;;;7.56;100.00;100647.31;5109649;29;20031;-82
2022/12/22 09:15:17;;;;;;;46.60;35.75;;;;;;;7.70;100.00;100669.34;5108008;29;20039;-83
2022/12/22 09:17:48;;;;;;;45.00;38.88;;;;;;;7.92;100.00;100704.41;5099100;29;20057;-82
2022/12/22 09:20:18;;;;;;;47.83;36.00;;;;;;;7.51;100.00;100644.53;5129063;29;20433;-82
2022/12/22 09:22:49;;;;;;;43.65;31.23;;;;;;;7.66;100.00;100692.38;5127308;29;20034;-83
2022/12/22 09:25:19;;;;;;;43.28;30.30;;;;;;;7.86;100.00;100716.09;5115734;29;20051;-82
2022/12/22 09:27:49;;;;;;;55.10;33.70;;;;;;;7.65;100.00;100701.50;5133290;29;20047;-83
2022/12/22 09:30:20;;;;;;;47.35;32.97;;;;;;;7.61;100.00;100698.47;5133657;29;20023;-82
2022/12/22 09:32:50;;;;;;;37.10;31.60;;;;;;;7.90;100.00;100736.09;5132488;29;20024;-83
2022/12/22 09:35:20;;;;;;;49.80;33.28;;;;;;;7.93;100.00;100739.09;5131432;29;20592;-82
2022/12/22 09:37:51;;;;;;;40.22;33.65;;;;;;;8.01;100.00;100749.47;5130488;29;20047;-83
2022/12/22 09:40:23;;;;;;;43.85;34.08;;;;;;;8.04;100.00;100749.00;5113261;29;20035;-83
2022/12/22 09:42:53;;;;;;;47.67;35.15;;;;;;;8.16;100.00;100758.88;5127719;29;20126;-83
2022/12/22 09:45:24;;;;;;;47.67;33.97;;;;;;;8.02;100.00;100736.84;5114387;29;20051;-83
2022/12/22 09:47:54;;;;;;;40.30;34.38;;;;;;;7.76;100.00;100706.81;5122518;29;20032;-82
2022/12/22 09:50:30;;;;;;;53.58;37.83;;;;;;;8.13;100.00;100760.97;5117247;29;20028;-83
2022/12/22 09:53:04;;;;;;;37.92;30.20;;;;;;;8.14;100.00;100761.78;5098118;29;20187;-83
2022/12/22 09:55:43;;;;;;;41.15;31.95;;;;;;;8.19;100.00;100769.13;5114168;29;20028;-83
2022/12/22 09:58:30;;;;;;;44.47;32.15;;;;;;;8.10;100.00;100750.69;5113847;29;20043;-83
2022/12/22 10:01:50;;;;;;;34.47;28.58;;;;;;;8.35;100.00;100776.47;5096272;29;20023;-83
2022/12/22 10:04:56;;;;;;;35.33;30.77;;;;;;;8.42;100.00;100767.16;5090682;29;20031;-83
2022/12/22 10:07:41;;;;;;;33.35;28.98;;;;;;;8.39;100.00;100769.50;5114614;29;20074;-83
2022/12/22 10:10:18;;;;;;;42.92;31.55;;;;;;;8.48;100.00;100764.56;5096759;29;20087;-83
2022/12/22 10:12:59;;;;;;;40.10;30.38;;;;;;;8.56;100.00;100754.19;5096369;29;20490;-82
2022/12/22 10:15:38;;;;;;;38.40;30.48;;;;;;;8.54;100.00;100737.47;5097024;29;20028;-83
2022/12/22 10:18:13;;;;;;;43.22;30.77;;;;;;;8.62;100.00;100764.00;5113556;29;20043;-83
2022/12/22 10:20:45;;;;;;;32.42;29.05;;;;;;;8.49;100.00;100763.50;5097606;29;20114;-83
2022/12/22 10:23:23;;;;;;;31.92;28.52;;;;;;;8.48;100.00;100756.47;5113795;29;20027;-83
2022/12/22 10:25:53;;;;;;;36.03;31.27;;;;;;;8.69;100.00;100761.94;5097952;29;20023;-83
2022/12/22 10:28:28;;;;;;;39.17;31.15;;;;;;;8.73;100.00;100784.63;5113576;29;20548;-82
2022/12/22 10:31:23;;;;;;;29.70;25.95;;;;;;;8.47;100.00;100782.56;5101178;29;20085;-86
2022/12/22 10:33:56;;;;;;;39.05;27.58;;;;;;;8.37;100.00;100788.59;5114250;29;20398;-82
2022/12/22 10:36:31;;;;;;;32.67;26.42;;;;;;;7.67;100.00;100683.25;5114113;29;20038;-83
2022/12/22 10:39:07;;;;;;;31.65;24.90;;;;;;;8.27;100.00;100774.13;5110839;29;20034;-83
2022/12/22 10:41:46;;;;;;;28.80;24.77;;;;;;;8.37;100.00;100782.44;5096190;29;20083;-84
2022/12/22 10:44:16;;;;;;;27.58;22.77;;;;;;;8.45;100.00;100793.56;5096297;29;20035;-83
2022/12/22 10:46:52;;;;;;;28.10;25.10;;;;;;;8.41;100.00;100767.41;5113153;29;20386;-82
2022/12/22 10:49:43;;;;;;;27.05;23.23;;;;;;;8.61;100.00;100777.69;5113558;29;20039;-83
2022/12/22 10:52:27;;;;;;;33.53;23.38;;;;;;;8.35;100.00;100719.97;5095723;29;20030;-82
2022/12/22 10:55:19;;;;;;;26.67;21.95;;;;;;;8.78;100.00;100773.09;5097976;29;20055;-83
2022/12/22 10:57:49;;;;;;;28.52;22.65;;;;;;;8.83;100.00;100758.91;5115278;29;20031;-83
2022/12/22 11:00:22;;;;;;;25.73;23.15;;;;;;;9.07;100.00;100776.50;5116136;29;20023;-83
2022/12/22 11:02:57;;;;;;;23.67;21.42;;;;;;;9.06;100.00;100774.88;5115061;29;20110;-82
2022/12/22 11:05:30;;;;;;;23.75;21.55;;;;;;;9.05;100.00;100765.97;5111733;29;20023;-82
2022/12/22 11:08:13;;;;;;;22.70;20.50;;;;;;;9.17;100.00;100782.03;5095945;29;20047;-82
2022/12/22 11:10:47;;;;;;;22.50;20.08;;;;;;;9.06;100.00;100772.16;5096489;29;20459;-81
2022/12/22 11:13:36;;;;;;;23.23;20.90;;;;;;;8.93;100.00;100764.47;5113663;29;20039;-82
2022/12/22 11:16:12;;;;;;;26.38;21.60;;;;;;;8.84;100.00;100771.31;5114331;29;20027;-82
2022/12/22 11:19:08;;;;;;;25.98;21.65;;;;;;;8.84;100.00;100774.81;5121619;29;20102;-82
2022/12/22 11:21:57;;;;;;;42.10;20.88;;;;;;;8.86;100.00;100778.09;5108219;29;20046;-83
2022/12/22 11:24:50;;;;;;;27.55;23.38;;;;;;;8.90;100.00;100775.72;5133402;29;20028;-83
2022/12/22 11:27:34;;;;;;;23.75;21.42;;;;;;;8.88;100.00;100769.75;5133432;29;20054;-83
2022/12/22 11:30:18;;;;;;;24.75;21.77;;;;;;;8.90;100.00;100771.16;5132185;29;20051;-82
2022/12/22 11:33:15;;;;;;;25.00;22.38;;;;;;;8.93;100.00;100772.53;5132463;29;20038;-83
2022/12/22 11:35:57;;;;;;;25.15;22.88;;;;;;;8.96;100.00;100748.59;5092816;29;20043;-83
2022/12/22 11:38:48;;;;;;;25.92;23.25;;;;;;;9.27;100.00;100766.00;5132373;29;20393;-83
2022/12/22 11:41:57;;;;;;;22.95;18.08;;;;;;;9.25;100.00;100751.13;5132302;29;20055;-82
2022/12/22 11:44:38;;;;;;;24.45;22.23;;;;;;;9.25;100.00;100743.88;5121956;29;20584;-83
2022/12/22 11:47:27;;;;;;;32.08;22.58;;;;;;;9.16;100.00;100742.69;5131642;29;20063;-82
2022/12/22 11:50:26;;;;;;;24.38;22.40;;;;;;;9.12;100.00;100744.25;5131633;29;20031;-82
2022/12/22 11:53:21;;;;;;;25.70;22.80;;;;;;;9.05;100.00;100743.59;5126973;29;20023;-83
2022/12/22 11:56:10;;;;;;;26.15;23.40;;;;;;;9.03;100.00;100730.38;5112981;29;20050;-83
2022/12/22 11:59:02;;;;;;;23.48;21.13;;;;;;;8.96;100.00;100731.63;5112424;29;20082;-83
2022/12/22 12:02:10;;;;;;;32.10;20.92;;;;;;;8.96;100.00;100731.63;5111532;29;20032;-83
2022/12/22 12:05:28;;;;;;;19.05;17.45;;;;;;;9.11;100.00;100731.84;5109123;29;20031;-83
2022/12/22 12:08:34;;;;;;;17.83;15.98;;;;;;;9.16;100.00;100721.13;5094576;29;20031;-81
2022/12/22 12:11:19;;;;;;;15.98;14.38;;;;;;;9.17;100.00;100722.75;5111920;29;20058;-82
2022/12/22 12:14:29;;;;;;;16.38;14.77;;;;;;;9.24;100.00;100711.81;5111668;29;20035;-82
2022/12/22 12:17:33;;;;;;;12.30;11.23;;;;;;;9.33;100.00;100704.91;5062051;29;20051;-82
2022/12/22 12:20:27;;;;;;;12.75;11.07;;;;;;;9.36;100.00;100699.00;5080706;29;20042;-82
2022/12/22 12:23:18;;;;;;;14.15;12.85;;;;;;;9.43;100.00;100705.84;5110573;29;20043;-83
2022/12/22 12:25:56;;;;;;;14.52;12.65;;;;;;;9.50;100.00;100704.84;5093524;29;20035;-82
2022/12/22 12:28:48;;;;;;;11.90;10.98;;;;;;;9.45;100.00;100709.09;5093683;29;20051;-83
2022/12/22 12:31:22;;;;;;;10.18;9.23;;;;;;;9.47;100.00;100706.97;5111930;29;20032;-83
2022/12/22 12:33:59;;;;;;;10.85;9.95;;;;;;;9.49;100.00;100690.53;5093333;29;20099;-83
2022/12/22 12:37:23;;;;;;;9.82;9.02;;;;;;;9.53;100.00;100688.16;5112648;29;20028;-84
2022/12/22 12:39:59;;;;;;;9.65;8.95;;;;;;;9.56;100.00;100691.13;5095892;29;20027;-84
2022/12/22 12:42:39;;;;;;;9.88;9.15;;;;;;;9.50;100.00;100688.66;5111813;29;20083;-83
2022/12/22 12:45:33;;;;;;;12.05;11.02;;;;;;;9.38;100.00;100675.31;5112414;29;20028;-81
2022/12/22 12:48:19;;;;;;;9.15;8.55;;;;;;;9.44;100.00;100683.22;5096513;29;20035;-85
2022/12/22 12:50:51;;;;;;;9.38;8.43;;;;;;;9.50;100.00;100673.31;5112301;29;20055;-83
2022/12/22 12:53:22;;;;;;;11.73;10.48;;;;;;;9.60;100.00;100667.19;5094898;29;20110;-82
2022/12/22 12:56:02;;;;;;;9.82;9.07;;;;;;;9.56;100.00;100682.25;5112680;29;20055;-82
2022/12/22 12:58:38;;;;;;;9.88;8.93;;;;;;;9.42;100.00;100682.66;5112437;29;20494;-83
2022/12/22 13:01:11;;;;;;;10.65;9.65;;;;;;;9.36;100.00;100678.25;5112596;29;20144;-83
2022/12/22 13:03:42;;;;;;;9.57;8.77;;;;;;;9.25;100.00;100670.31;5113412;29;20099;-83
2022/12/22 13:06:50;;;;;;;8.55;7.85;;;;;;;9.24;100.00;100680.25;5115986;29;20024;-83
2022/12/22 13:09:22;;;;;;;9.60;8.75;;;;;;;9.24;100.00;100669.47;5057105;29;20036;-83
2022/12/22 13:11:54;;;;;;;10.00;9.20;;;;;;;8.58;100.00;100579.81;5106303;29;20039;-86
2022/12/22 13:14:56;;;;;;;10.00;9.38;;;;;;;9.28;100.00;100662.53;5110916;29;20111;-84
2022/12/22 13:17:49;;;;;;;16.95;10.70;;;;;;;9.30;100.00;100657.72;5111401;29;20068;-86
2022/12/22 13:20:27;;;;;;;8.48;7.88;;;;;;;9.25;100.00;100649.56;5095198;29;20419;-86
2022/12/22 13:22:59;;;;;;;11.02;10.13;;;;;;;9.30;100.00;100657.72;5112507;29;20394;-85
2022/12/22 13:25:45;;;;;;;11.85;9.70;;;;;;;9.12;100.00;100623.84;5096434;29;20059;-87
2022/12/22 13:28:18;;;;;;;10.18;9.43;;;;;;;9.30;100.00;100649.63;5093875;29;20247;-84
2022/12/22 13:30:55;;;;;;;9.70;8.93;;;;;;;9.27;100.00;100652.81;5112060;29;20553;-84
2022/12/22 13:33:30;;;;;;;11.38;10.50;;;;;;;9.11;100.00;100621.41;5111327;29;20039;-84
2022/12/22 13:36:02;;;;;;;10.02;9.35;;;;;;;9.02;100.00;100606.72;5109049;29;20028;-83
2022/12/22 13:38:35;;;;;;;9.95;8.90;;;;;;;9.12;100.00;100633.78;5110378;29;20103;-83
2022/12/22 13:41:20;;;;;;;7.82;7.03;;;;;;;9.05;100.00;100633.97;5111669;29;20486;-83
2022/12/22 13:44:06;;;;;;;7.95;7.43;;;;;;;8.84;100.00;100607.88;5111000;29;20034;-83
2022/12/22 13:46:37;;;;;;;7.18;6.47;;;;;;;8.88;100.00;100625.16;5126887;29;20138;-83
2022/12/22 13:49:14;;;;;;;6.90;6.30;;;;;;;8.75;100.00;100612.88;5112679;29;20070;-82
2022/12/22 13:51:46;;;;;;;7.22;6.63;;;;;;;8.49;100.00;100584.00;5112353;29;20035;-82
2022/12/22 13:54:27;;;;;;;7.35;6.30;;;;;;;8.43;100.00;100583.13;5094591;29;20038;-82
2022/12/22 13:56:59;;;;;;;5.75;5.45;;;;;;;8.42;100.00;100584.19;5112088;29;20039;-83
2022/12/22 13:59:42;;;;;;;7.45;6.95;;;;;;;8.44;100.00;100590.13;5112995;29;20054;-83
2022/12/22 14:02:15;;;;;;;5.07;4.85;;;;;;;8.32;100.00;100577.81;5113342;29;20046;-82
2022/12/22 14:05:08;;;;;;;6.85;6.18;;;;;;;8.39;100.00;100595.44;5110826;29;20112;-81
2022/12/22 14:07:38;;;;;;;8.43;6.95;;;;;;;8.21;100.00;100565.28;5113940;29;20032;-83
2022/12/22 14:10:09;;;;;;;7.55;7.05;;;;;;;8.11;100.00;100558.69;5107931;29;20034;-82
2022/12/22 14:12:44;;;;;;;6.70;6.30;;;;;;;7.89;100.00;100524.75;5132993;29;20087;-84
2022/12/22 14:15:17;;;;;;;6.70;6.30;;;;;;;8.34;100.00;100600.78;5132983;29;20027;-82
2022/12/22 14:17:48;;;;;;;6.72;6.22;;;;;;;7.97;100.00;100543.97;5132536;29;20087;-84
2022/12/22 14:20:27;;;;;;;5.30;5.10;;;;;;;8.26;100.00;100585.00;5115994;29;20047;-82
2022/12/22 14:23:04;;;;;;;7.32;6.63;;;;;;;8.13;100.00;100577.28;5133605;29;20031;-83
2022/12/22 14:25:40;;;;;;;5.43;4.93;;;;;;;8.19;100.00;100588.91;5115895;29;20023;-82
2022/12/22 14:28:17;;;;;;;10.20;6.82;;;;;;;8.16;100.00;100589.41;5115902;29;20035;-82
2022/12/22 14:30:51;;;;;;;7.47;6.88;;;;;;;7.99;100.00;100560.69;5134986;28;20498;-81
2022/12/22 14:33:31;;;;;;;5.57;5.28;;;;;;;8.09;100.00;100570.75;5124596;29;20031;-82
2022/12/22 14:36:20;;;;;;;6.38;6.07;;;;;;;8.05;100.00;100553.50;5142927;29;20078;-83
2022/12/22 14:38:56;;;;;;;7.25;6.60;;;;;;;7.86;100.00;100530.63;5137432;29;20055;-83
2022/12/22 14:41:50;;;;;;;6.30;5.88;;;;;;;7.97;100.00;100578.94;5136522;29;20023;-85
2022/12/22 14:44:34;;;;;;;7.88;7.32;;;;;;;7.99;100.00;100568.75;5120061;29;20037;-82
2022/12/22 14:47:16;;;;;;;11.00;6.35;;;;;;;7.99;100.00;100568.75;5136830;29;20043;-82
2022/12/22 14:49:51;;;;;;;7.65;7.07;;;;;;;7.98;100.00;100577.06;5119030;29;20046;-83
2022/12/22 14:52:44;;;;;;;6.03;5.57;;;;;;;7.73;100.00;100524.53;5136321;29;20023;-84
2022/12/22 14:55:26;;;;;;;6.82;6.18;;;;;;;7.97;100.00;100562.78;5136157;29;20054;-81
2022/12/22 14:58:05;;;;;;;7.90;7.40;;;;;;;7.96;100.00;100576.47;5135303;29;20027;-81
2022/12/22 15:00:39;;;;;;;7.67;6.97;;;;;;;7.84;100.00;100544.28;5135369;29;20035;-83
2022/12/22 15:06:24;;;;;;;7.53;7.03;;;;;;;7.96;100.00;100553.09;5118909;29;20059;-85
2022/12/22 15:09:03;;;;;;;8.15;7.38;;;;;;;8.00;100.00;100551.56;5115611;29;20028;-85
2022/12/22 15:11:36;;;;;;;8.68;8.18;;;;;;;7.83;100.00;100523.84;5116246;29;20027;-85
2022/12/22 15:14:16;;;;;;;8.93;8.10;;;;;;;8.01;100.00;100542.44;5097379;29;20024;-84
2022/12/22 15:16:47;;;;;;;9.48;8.68;;;;;;;7.98;100.00;100534.03;5115017;29;20091;-84
2022/12/22 15:19:21;;;;;;;9.27;8.75;;;;;;;7.83;100.00;100501.53;5098254;29;20511;-83
2022/12/22 15:21:51;;;;;;;8.63;8.02;;;;;;;8.07;100.00;100540.63;5121575;29;20023;-84
2022/12/22 15:24:22;;;;;;;10.65;8.65;;;;;;;8.08;100.00;100553.81;5100919;29;20521;-84
2022/12/22 15:26:53;;;;;;;10.18;9.15;;;;;;;8.10;100.00;100530.16;5118430;29;20039;-83
2022/12/22 15:29:23;;;;;;;9.50;8.82;;;;;;;7.97;100.00;100500.97;5114942;29;20015;-84
2022/12/22 15:31:54;;;;;;;9.00;8.27;;;;;;;8.10;100.00;100515.91;5115066;29;20394;-84
2022/12/22 15:34:26;;;;;;;9.65;8.50;;;;;;;8.21;100.00;100533.00;5114622;29;20023;-83